sensor_id;sensor_type;location;lat;lon;timestamp;temperature;humidity
37890;DHT22;23730;49.120;12.214;2022-07-30T04:24:18;15.10;99.90
37890;DHT22;23730;49.120;12.214;2022-07-30T04:29:21;15.20;99.90
37890;DHT22;23730;49.120;12.214;2022-07-30T04:34:27;15.10;99.90
37890;DHT22;23730;49.120;12.214;2022-07-30T04:39:30;15.00;99.90
37890;DHT22;23730;49.120;12.214;2022-07-30T04:44:32;15.00;99.90
37890;DHT22;23730;49.120;12.214;2022-07-30T04:49:53;15.00;99.90
37890;DHT22;23730;49.120;12.214;2022-07-30T04:55:02;15.10;99.90
37890;DHT22;23730;49.120;12.214;2022-07-30T05:00:06;15.10;99.90
37890;DHT22;23730;49.120;12.214;2022-07-30T05:05:13;15.10;99.90
37890;DHT22;23730;49.120;12.214;2022-07-30T05:10:17;15.30;99.90
37890;DHT22;23730;49.120;12.214;2022-07-30T05:15:20;15.50;99.90
37890;DHT22;23730;49.120;12.214;2022-07-30T05:20:29;15.50;99.90
37890;DHT22;23730;49.120;12.214;2022-07-30T05:25:53;15.50;99.90
37890;DHT22;23730;49.120;12.214;2022-07-30T05:31:09;15.70;99.90
37890;DHT22;23730;49.120;12.214;2022-07-30T05:36:13;15.60;99.90
37890;DHT22;23730;49.120;12.214;2022-07-30T05:41:15;15.60;99.90
37890;DHT22;23730;49.120;12.214;2022-07-30T05:46:49;15.70;99.90
37890;DHT22;23730;49.120;12.214;2022-07-30T05:51:52;15.60;99.90
37890;DHT22;23730;49.120;12.214;2022-07-30T05:56:55;15.80;99.90
37890;DHT22;23730;49.120;12.214;2022-07-30T06:02:06;15.90;99.90
37890;DHT22;23730;49.120;12.214;2022-07-30T06:07:28;15.70;99.90
37890;DHT22;23730;49.120;12.214;2022-07-30T06:12:31;15.60;99.90
37890;DHT22;23730;49.120;12.214;2022-07-30T06:17:42;15.60;99.90
37890;DHT22;23730;49.120;12.214;2022-07-30T06:23:12;15.60;99.90
37890;DHT22;23730;49.120;12.214;2022-07-30T06:28:27;15.70;99.90
37890;DHT22;23730;49.120;12.214;2022-07-30T06:33:47;15.60;99.90
37890;DHT22;23730;49.120;12.214;2022-07-30T06:38:49;15.70;99.90
37890;DHT22;23730;49.120;12.214;2022-07-30T06:43:58;15.90;99.90
37890;DHT22;23730;49.120;12.214;2022-07-30T06:49:39;16.20;99.90
37890;DHT22;23730;49.120;12.214;2022-07-30T06:54:43;16.30;99.90
37890;DHT22;23730;49.120;12.214;2022-07-30T06:59:54;16.70;99.90
37890;DHT22;23730;49.120;12.214;2022-07-30T07:05:18;16.50;99.90
37890;DHT22;23730;49.120;12.214;2022-07-30T07:10:24;16.50;99.90
37890;DHT22;23730;49.120;12.214;2022-07-30T07:15:38;16.60;99.90
37890;DHT22;23730;49.120;12.214;2022-07-30T07:20:44;16.60;99.90
37890;DHT22;23730;49.120;12.214;2022-07-30T07:25:47;17.20;99.90
37890;DHT22;23730;49.120;12.214;2022-07-30T07:30:50;18.00;99.90
37890;DHT22;23730;49.120;12.214;2022-07-30T07:35:52;18.80;99.90
37890;DHT22;23730;49.120;12.214;2022-07-30T07:41:01;18.80;99.90
37890;DHT22;23730;49.120;12.214;2022-07-30T07:46:03;18.30;99.90
37890;DHT22;23730;49.120;12.214;2022-07-30T07:51:07;17.90;99.90
37890;DHT22;23730;49.120;12.214;2022-07-30T07:56:10;17.90;99.90
37890;DHT22;23730;49.120;12.214;2022-07-30T08:01:14;18.40;99.90
37890;DHT22;23730;49.120;12.214;2022-07-30T08:06:43;19.20;99.90
37890;DHT22;23730;49.120;12.214;2022-07-30T08:12:13;19.80;99.90
37890;DHT22;23730;49.120;12.214;2022-07-30T08:17:42;19.70;99.90
37890;DHT22;23730;49.120;12.214;2022-07-30T08:22:50;20.10;99.90
37890;DHT22;23730;49.120;12.214;2022-07-30T08:27:52;19.90;99.90
37890;DHT22;23730;49.120;12.214;2022-07-30T08:32:56;20.40;99.90
37890;DHT22;23730;49.120;12.214;2022-07-30T08:37:58;20.90;99.90
37890;DHT22;23730;49.120;12.214;2022-07-30T08:43:04;21.50;99.90
37890;DHT22;23730;49.120;12.214;2022-07-30T08:48:09;21.10;99.90
37890;DHT22;23730;49.120;12.214;2022-07-30T08:53:19;21.40;99.90
37890;DHT22;23730;49.120;12.214;2022-07-30T08:58:32;23.50;99.90
37890;DHT22;23730;49.120;12.214;2022-07-30T09:03:38;23.90;99.90
37890;DHT22;23730;49.120;12.214;2022-07-30T09:08:45;24.90;99.90
37890;DHT22;23730;49.120;12.214;2022-07-30T09:13:47;24.90;99.90
37890;DHT22;23730;49.120;12.214;2022-07-30T09:18:52;25.50;99.90
37890;DHT22;23730;49.120;12.214;2022-07-30T09:23:56;24.70;99.90
37890;DHT22;23730;49.120;12.214;2022-07-30T09:29:21;23.90;99.90
37890;DHT22;23730;49.120;12.214;2022-07-30T09:34:46;25.20;99.90
37890;DHT22;23730;49.120;12.214;2022-07-30T09:40:16;25.40;96.20
37890;DHT22;23730;49.120;12.214;2022-07-30T09:45:52;25.80;85.90
37890;DHT22;23730;49.120;12.214;2022-07-30T09:50:59;26.80;64.60
37890;DHT22;23730;49.120;12.214;2022-07-30T09:56:23;25.60;76.00
37890;DHT22;23730;49.120;12.214;2022-07-30T10:01:49;24.90;81.20
37890;DHT22;23730;49.120;12.214;2022-07-30T10:07:21;24.50;93.40
37890;DHT22;23730;49.120;12.214;2022-07-30T10:12:32;23.90;99.30
37890;DHT22;23730;49.120;12.214;2022-07-30T10:17:36;25.20;90.50
37890;DHT22;23730;49.120;12.214;2022-07-30T10:23:07;24.50;88.30
37890;DHT22;23730;49.120;12.214;2022-07-30T10:28:11;27.40;62.20
37890;DHT22;23730;49.120;12.214;2022-07-30T10:33:13;26.90;59.90
37890;DHT22;23730;49.120;12.214;2022-07-30T10:38:38;27.30;55.30
37890;DHT22;23730;49.120;12.214;2022-07-30T10:44:08;28.60;58.10
37890;DHT22;23730;49.120;12.214;2022-07-30T10:49:17;28.20;48.60
37890;DHT22;23730;49.120;12.214;2022-07-30T11:10:36;24.40;92.00
37890;DHT22;23730;49.120;12.214;2022-07-30T11:15:58;25.60;74.00
37890;DHT22;23730;49.120;12.214;2022-07-30T11:21:20;25.50;74.70
37890;DHT22;23730;49.120;12.214;2022-07-30T11:31:42;24.60;81.50
37890;DHT22;23730;49.120;12.214;2022-07-30T11:37:12;24.50;82.70
37890;DHT22;23730;49.120;12.214;2022-07-30T11:42:35;24.40;91.20
37890;DHT22;23730;49.120;12.214;2022-07-30T11:47:38;24.90;83.70
37890;DHT22;23730;49.120;12.214;2022-07-30T11:52:40;24.90;92.80
37890;DHT22;23730;49.120;12.214;2022-07-30T11:57:44;25.60;79.80
37890;DHT22;23730;49.120;12.214;2022-07-30T12:02:46;25.40;70.50
37890;DHT22;23730;49.120;12.214;2022-07-30T12:07:56;25.00;64.80
37890;DHT22;23730;49.120;12.214;2022-07-30T12:13:14;25.30;71.90
37890;DHT22;23730;49.120;12.214;2022-07-30T12:18:25;25.60;60.60
37890;DHT22;23730;49.120;12.214;2022-07-30T12:23:31;25.10;61.10
37890;DHT22;23730;49.120;12.214;2022-07-30T12:28:34;23.90;64.30
37890;DHT22;23730;49.120;12.214;2022-07-30T12:33:37;23.00;64.40
37890;DHT22;23730;49.120;12.214;2022-07-30T12:38:44;22.90;67.10
37890;DHT22;23730;49.120;12.214;2022-07-30T12:48:55;24.00;70.20
37890;DHT22;23730;49.120;12.214;2022-07-30T12:54:19;25.10;56.20
37890;DHT22;23730;49.120;12.214;2022-07-30T12:59:22;25.10;53.60
37890;DHT22;23730;49.120;12.214;2022-07-30T13:04:24;24.50;55.20
37890;DHT22;23730;49.120;12.214;2022-07-30T13:09:27;24.10;58.70
37890;DHT22;23730;49.120;12.214;2022-07-30T13:14:29;25.10;59.00
37890;DHT22;23730;49.120;12.214;2022-07-30T13:19:32;25.30;51.60
37890;DHT22;23730;49.120;12.214;2022-07-30T13:24:34;23.50;59.50
37890;DHT22;23730;49.120;12.214;2022-07-30T13:29:36;23.20;66.20
37890;DHT22;23730;49.120;12.214;2022-07-30T13:34:38;22.90;71.70
37890;DHT22;23730;49.120;12.214;2022-07-30T13:39:42;22.70;72.20
37890;DHT22;23730;49.120;12.214;2022-07-30T13:44:44;22.10;99.90
37890;DHT22;23730;49.120;12.214;2022-07-30T13:49:47;21.20;99.90
37890;DHT22;23730;49.120;12.214;2022-07-30T13:54:51;20.60;99.90
37890;DHT22;23730;49.120;12.214;2022-07-30T13:59:54;20.70;99.90
37890;DHT22;23730;49.120;12.214;2022-07-30T14:04:56;22.20;99.90
37890;DHT22;23730;49.120;12.214;2022-07-30T14:09:58;23.00;99.90
37890;DHT22;23730;49.120;12.214;2022-07-30T14:15:00;23.10;99.90
37890;DHT22;23730;49.120;12.214;2022-07-30T14:20:03;23.20;97.40
37890;DHT22;23730;49.120;12.214;2022-07-30T14:25:06;23.60;90.80
37890;DHT22;23730;49.120;12.214;2022-07-30T14:30:09;24.40;69.00
37890;DHT22;23730;49.120;12.214;2022-07-30T14:35:11;25.10;64.40
37890;DHT22;23730;49.120;12.214;2022-07-30T14:40:13;23.90;64.50
37890;DHT22;23730;49.120;12.214;2022-07-30T14:45:15;22.70;75.80
37890;DHT22;23730;49.120;12.214;2022-07-30T14:50:18;22.30;92.70
37890;DHT22;23730;49.120;12.214;2022-07-30T14:55:20;22.00;93.40
37890;DHT22;23730;49.120;12.214;2022-07-30T15:00:22;21.80;88.00
37890;DHT22;23730;49.120;12.214;2022-07-30T15:05:25;21.80;77.70
37890;DHT22;23730;49.120;12.214;2022-07-30T15:10:27;21.80;83.30
37890;DHT22;23730;49.120;12.214;2022-07-30T15:15:29;21.80;68.90
37890;DHT22;23730;49.120;12.214;2022-07-30T15:20:39;21.70;69.30
37890;DHT22;23730;49.120;12.214;2022-07-30T15:25:41;21.50;71.00
37890;DHT22;23730;49.120;12.214;2022-07-30T15:30:43;21.20;73.90
37890;DHT22;23730;49.120;12.214;2022-07-30T15:35:45;21.10;80.90
37890;DHT22;23730;49.120;12.214;2022-07-30T15:40:47;21.00;84.50
37890;DHT22;23730;49.120;12.214;2022-07-30T15:45:49;20.80;87.70
37890;DHT22;23730;49.120;12.214;2022-07-30T15:51:01;20.70;97.30
37890;DHT22;23730;49.120;12.214;2022-07-30T15:56:04;20.40;99.90
37890;DHT22;23730;49.120;12.214;2022-07-30T16:01:07;19.60;99.90
37890;DHT22;23730;49.120;12.214;2022-07-30T16:06:09;19.00;99.90
37890;DHT22;23730;49.120;12.214;2022-07-30T16:11:11;18.70;99.90
37890;DHT22;23730;49.120;12.214;2022-07-30T16:16:13;18.60;99.90
37890;DHT22;23730;49.120;12.214;2022-07-30T16:21:16;18.70;99.90
37890;DHT22;23730;49.120;12.214;2022-07-30T16:26:19;18.70;99.90
37890;DHT22;23730;49.120;12.214;2022-07-30T16:31:21;18.70;99.90
37890;DHT22;23730;49.120;12.214;2022-07-30T16:36:24;18.60;99.90
37890;DHT22;23730;49.120;12.214;2022-07-30T16:41:26;18.60;99.90
37890;DHT22;23730;49.120;12.214;2022-07-30T16:46:28;18.70;99.90
37890;DHT22;23730;49.120;12.214;2022-07-30T16:51:30;18.70;99.90
37890;DHT22;23730;49.120;12.214;2022-07-30T16:56:32;18.60;99.90
37890;DHT22;23730;49.120;12.214;2022-07-30T17:01:34;18.80;99.90
37890;DHT22;23730;49.120;12.214;2022-07-30T17:06:36;19.00;99.90
37890;DHT22;23730;49.120;12.214;2022-07-30T17:11:40;19.10;99.90
37890;DHT22;23730;49.120;12.214;2022-07-30T17:16:52;19.20;99.90
37890;DHT22;23730;49.120;12.214;2022-07-30T17:21:54;19.20;99.90
37890;DHT22;23730;49.120;12.214;2022-07-30T17:26:56;19.00;99.90
37890;DHT22;23730;49.120;12.214;2022-07-30T17:31:58;18.80;99.90
37890;DHT22;23730;49.120;12.214;2022-07-30T17:37:01;18.70;99.90
37890;DHT22;23730;49.120;12.214;2022-07-30T17:42:04;18.60;99.90
37890;DHT22;23730;49.120;12.214;2022-07-30T17:47:07;18.60;99.90
37890;DHT22;23730;49.120;12.214;2022-07-30T17:52:15;18.50;99.90
37890;DHT22;23730;49.120;12.214;2022-07-30T17:57:17;18.40;99.90
37890;DHT22;23730;49.120;12.214;2022-07-30T18:02:19;18.40;99.90
37890;DHT22;23730;49.120;12.214;2022-07-30T18:07:28;18.40;99.90
37890;DHT22;23730;49.120;12.214;2022-07-30T18:12:30;18.50;99.90
37890;DHT22;23730;49.120;12.214;2022-07-30T18:17:33;18.50;99.90
37890;DHT22;23730;49.120;12.214;2022-07-30T18:22:34;18.40;99.90
37890;DHT22;23730;49.120;12.214;2022-07-30T18:27:37;18.30;99.90
37890;DHT22;23730;49.120;12.214;2022-07-30T18:32:39;18.20;99.90
37890;DHT22;23730;49.120;12.214;2022-07-30T18:37:42;18.20;99.90
37890;DHT22;23730;49.120;12.214;2022-07-30T18:42:45;18.10;99.90
37890;DHT22;23730;49.120;12.214;2022-07-30T18:47:47;18.10;99.90
37890;DHT22;23730;49.120;12.214;2022-07-30T18:52:50;18.00;99.90
37890;DHT22;23730;49.120;12.214;2022-07-30T18:57:52;17.80;99.90
37890;DHT22;23730;49.120;12.214;2022-07-30T19:02:54;17.60;99.90
37890;DHT22;23730;49.120;12.214;2022-07-30T19:07:56;17.40;99.90
37890;DHT22;23730;49.120;12.214;2022-07-30T19:12:59;17.20;99.90
37890;DHT22;23730;49.120;12.214;2022-07-30T19:18:02;17.10;99.90
37890;DHT22;23730;49.120;12.214;2022-07-30T19:23:10;17.00;99.90
37890;DHT22;23730;49.120;12.214;2022-07-30T19:28:14;17.00;99.90
37890;DHT22;23730;49.120;12.214;2022-07-30T19:33:18;17.00;99.90
37890;DHT22;23730;49.120;12.214;2022-07-30T19:38:20;17.00;99.90
37890;DHT22;23730;49.120;12.214;2022-07-30T19:43:25;16.90;99.90
37890;DHT22;23730;49.120;12.214;2022-07-30T19:48:29;16.90;99.90
37890;DHT22;23730;49.120;12.214;2022-07-30T19:53:32;16.90;99.90
37890;DHT22;23730;49.120;12.214;2022-07-30T19:58:35;16.80;99.90
37890;DHT22;23730;49.120;12.214;2022-07-30T20:03:38;16.80;99.90
37890;DHT22;23730;49.120;12.214;2022-07-30T20:08:40;16.70;99.90
37890;DHT22;23730;49.120;12.214;2022-07-30T20:13:47;16.70;99.90
37890;DHT22;23730;49.120;12.214;2022-07-30T20:18:49;16.70;99.90
37890;DHT22;23730;49.120;12.214;2022-07-30T20:23:52;16.60;99.90
